sensor_id;sensor_type;location;lat;lon;timestamp;P1;durP1;ratioP1;P2;durP2;ratioP2
47251;SDS011;32991;51.374;11.586;2023-11-21T00:02:21;5.35;;;1.42;;
47251;SDS011;32991;51.374;11.586;2023-11-21T00:04:48;8.05;;;1.75;;
47251;SDS011;32991;51.374;11.586;2023-11-21T00:07:15;2.42;;;1.55;;
47251;SDS011;32991;51.374;11.586;2023-11-21T00:09:42;3.97;;;1.90;;
47251;SDS011;32991;51.374;11.586;2023-11-21T00:12:09;4.63;;;1.90;;
47251;SDS011;32991;51.374;11.586;2023-11-21T00:14:40;2.25;;;1.60;;
47251;SDS011;32991;51.374;11.586;2023-11-21T00:17:07;3.92;;;1.58;;
47251;SDS011;32991;51.374;11.586;2023-11-21T00:19:33;6.68;;;1.30;;
47251;SDS011;32991;51.374;11.586;2023-11-21T00:22:01;3.83;;;1.30;;
47251;SDS011;32991;51.374;11.586;2023-11-21T00:24:28;4.43;;;1.67;;
47251;SDS011;32991;51.374;11.586;2023-11-21T00:26:55;4.32;;;1.65;;
47251;SDS011;32991;51.374;11.586;2023-11-21T00:29:21;2.97;;;1.23;;
47251;SDS011;32991;51.374;11.586;2023-11-21T00:31:48;2.92;;;1.02;;
47251;SDS011;32991;51.374;11.586;2023-11-21T00:34:15;3.45;;;1.60;;
47251;SDS011;32991;51.374;11.586;2023-11-21T00:36:42;3.42;;;1.42;;
47251;SDS011;32991;51.374;11.586;2023-11-21T00:39:08;1.52;;;1.35;;
47251;SDS011;32991;51.374;11.586;2023-11-21T00:41:35;5.13;;;1.27;;
47251;SDS011;32991;51.374;11.586;2023-11-21T00:44:03;3.30;;;1.55;;
47251;SDS011;32991;51.374;11.586;2023-11-21T00:46:30;2.40;;;1.40;;
47251;SDS011;32991;51.374;11.586;2023-11-21T00:48:57;4.00;;;1.92;;
47251;SDS011;32991;51.374;11.586;2023-11-21T00:51:23;1.67;;;1.42;;
47251;SDS011;32991;51.374;11.586;2023-11-21T00:53:51;6.15;;;2.13;;
47251;SDS011;32991;51.374;11.586;2023-11-21T00:56:18;2.38;;;1.50;;
47251;SDS011;32991;51.374;11.586;2023-11-21T00:58:45;5.57;;;1.52;;
47251;SDS011;32991;51.374;11.586;2023-11-21T01:01:16;6.38;;;1.38;;
47251;SDS011;32991;51.374;11.586;2023-11-21T01:03:43;5.43;;;1.60;;
47251;SDS011;32991;51.374;11.586;2023-11-21T01:06:11;2.10;;;1.58;;
47251;SDS011;32991;51.374;11.586;2023-11-21T01:08:41;10.48;;;1.60;;
47251;SDS011;32991;51.374;11.586;2023-11-21T01:11:09;4.18;;;1.70;;
47251;SDS011;32991;51.374;11.586;2023-11-21T01:13:39;2.95;;;1.60;;
47251;SDS011;32991;51.374;11.586;2023-11-21T01:16:06;2.08;;;1.30;;
47251;SDS011;32991;51.374;11.586;2023-11-21T01:18:34;4.07;;;1.45;;
47251;SDS011;32991;51.374;11.586;2023-11-21T01:21:01;7.05;;;1.92;;
47251;SDS011;32991;51.374;11.586;2023-11-21T01:23:28;2.60;;;1.27;;
47251;SDS011;32991;51.374;11.586;2023-11-21T01:25:58;5.90;;;1.55;;
47251;SDS011;32991;51.374;11.586;2023-11-21T01:28:24;2.78;;;1.08;;
47251;SDS011;32991;51.374;11.586;2023-11-21T01:30:51;10.23;;;2.17;;
47251;SDS011;32991;51.374;11.586;2023-11-21T01:33:19;3.05;;;1.35;;
47251;SDS011;32991;51.374;11.586;2023-11-21T01:35:46;8.27;;;2.15;;
47251;SDS011;32991;51.374;11.586;2023-11-21T01:38:13;8.40;;;1.83;;
47251;SDS011;32991;51.374;11.586;2023-11-21T01:40:41;2.30;;;1.58;;
47251;SDS011;32991;51.374;11.586;2023-11-21T01:43:08;6.20;;;1.75;;
47251;SDS011;32991;51.374;11.586;2023-11-21T01:45:35;8.95;;;1.83;;
47251;SDS011;32991;51.374;11.586;2023-11-21T01:48:02;11.43;;;2.00;;
47251;SDS011;32991;51.374;11.586;2023-11-21T01:50:29;3.15;;;2.00;;
47251;SDS011;32991;51.374;11.586;2023-11-21T01:52:56;5.05;;;2.00;;
47251;SDS011;32991;51.374;11.586;2023-11-21T01:55:23;3.05;;;1.80;;
47251;SDS011;32991;51.374;11.586;2023-11-21T01:57:55;4.15;;;1.85;;
47251;SDS011;32991;51.374;11.586;2023-11-21T02:00:24;6.18;;;1.90;;
47251;SDS011;32991;51.374;11.586;2023-11-21T02:02:51;3.75;;;2.03;;
47251;SDS011;32991;51.374;11.586;2023-11-21T02:05:18;6.95;;;2.20;;
47251;SDS011;32991;51.374;11.586;2023-11-21T02:07:46;2.78;;;1.50;;
47251;SDS011;32991;51.374;11.586;2023-11-21T02:10:14;9.55;;;2.47;;
47251;SDS011;32991;51.374;11.586;2023-11-21T02:12:42;6.75;;;2.20;;
47251;SDS011;32991;51.374;11.586;2023-11-21T02:15:13;2.97;;;2.00;;
47251;SDS011;32991;51.374;11.586;2023-11-21T02:17:54;2.95;;;1.75;;
47251;SDS011;32991;51.374;11.586;2023-11-21T02:20:21;6.25;;;2.38;;
47251;SDS011;32991;51.374;11.586;2023-11-21T02:22:55;4.38;;;1.98;;
47251;SDS011;32991;51.374;11.586;2023-11-21T02:25:28;6.47;;;2.03;;
47251;SDS011;32991;51.374;11.586;2023-11-21T02:27:56;3.88;;;2.20;;
47251;SDS011;32991;51.374;11.586;2023-11-21T02:30:24;2.80;;;1.98;;
47251;SDS011;32991;51.374;11.586;2023-11-21T02:32:51;3.22;;;1.50;;
47251;SDS011;32991;51.374;11.586;2023-11-21T02:35:21;5.88;;;2.55;;
47251;SDS011;32991;51.374;11.586;2023-11-21T02:37:48;3.70;;;2.22;;
47251;SDS011;32991;51.374;11.586;2023-11-21T02:40:15;8.23;;;2.50;;
47251;SDS011;32991;51.374;11.586;2023-11-21T02:42:44;5.95;;;2.05;;
47251;SDS011;32991;51.374;11.586;2023-11-21T02:45:11;6.70;;;1.83;;
47251;SDS011;32991;51.374;11.586;2023-11-21T02:47:44;3.50;;;2.30;;
47251;SDS011;32991;51.374;11.586;2023-11-21T02:50:11;4.55;;;2.00;;
47251;SDS011;32991;51.374;11.586;2023-11-21T02:52:38;3.50;;;1.90;;
47251;SDS011;32991;51.374;11.586;2023-11-21T02:55:06;6.13;;;2.53;;
47251;SDS011;32991;51.374;11.586;2023-11-21T02:57:36;6.63;;;1.80;;
47251;SDS011;32991;51.374;11.586;2023-11-21T03:00:03;8.77;;;2.50;;
47251;SDS011;32991;51.374;11.586;2023-11-21T03:02:33;4.60;;;2.45;;
47251;SDS011;32991;51.374;11.586;2023-11-21T03:05:06;4.95;;;2.17;;
47251;SDS011;32991;51.374;11.586;2023-11-21T03:07:33;5.00;;;2.78;;
47251;SDS011;32991;51.374;11.586;2023-11-21T03:09:59;5.43;;;2.30;;
47251;SDS011;32991;51.374;11.586;2023-11-21T03:12:26;8.63;;;2.13;;
47251;SDS011;32991;51.374;11.586;2023-11-21T03:14:53;3.03;;;2.00;;
47251;SDS011;32991;51.374;11.586;2023-11-21T03:17:20;3.88;;;2.08;;
47251;SDS011;32991;51.374;11.586;2023-11-21T03:19:47;4.72;;;2.58;;
47251;SDS011;32991;51.374;11.586;2023-11-21T03:22:14;7.28;;;2.25;;
47251;SDS011;32991;51.374;11.586;2023-11-21T03:24:41;4.35;;;2.03;;
47251;SDS011;32991;51.374;11.586;2023-11-21T03:27:08;4.78;;;1.95;;
47251;SDS011;32991;51.374;11.586;2023-11-21T03:29:34;4.53;;;2.13;;
47251;SDS011;32991;51.374;11.586;2023-11-21T03:32:01;6.90;;;2.30;;
47251;SDS011;32991;51.374;11.586;2023-11-21T03:34:29;4.00;;;2.22;;
47251;SDS011;32991;51.374;11.586;2023-11-21T03:36:56;9.73;;;2.55;;
47251;SDS011;32991;51.374;11.586;2023-11-21T03:39:22;8.32;;;2.65;;
47251;SDS011;32991;51.374;11.586;2023-11-21T03:41:49;8.00;;;2.53;;
47251;SDS011;32991;51.374;11.586;2023-11-21T03:44:16;6.05;;;2.30;;
47251;SDS011;32991;51.374;11.586;2023-11-21T03:46:44;9.45;;;2.47;;
47251;SDS011;32991;51.374;11.586;2023-11-21T03:49:11;4.78;;;2.40;;
47251;SDS011;32991;51.374;11.586;2023-11-21T03:51:40;7.22;;;3.03;;
47251;SDS011;32991;51.374;11.586;2023-11-21T03:54:06;7.85;;;2.65;;
47251;SDS011;32991;51.374;11.586;2023-11-21T03:56:33;3.63;;;3.08;;
47251;SDS011;32991;51.374;11.586;2023-11-21T03:58:59;4.57;;;2.35;;
47251;SDS011;32991;51.374;11.586;2023-11-21T04:01:26;7.32;;;2.65;;
47251;SDS011;32991;51.374;11.586;2023-11-21T04:03:53;7.10;;;2.72;;
47251;SDS011;32991;51.374;11.586;2023-11-21T04:06:20;2.55;;;2.17;;
47251;SDS011;32991;51.374;11.586;2023-11-21T04:08:47;6.15;;;2.63;;
47251;SDS011;32991;51.374;11.586;2023-11-21T04:11:13;4.70;;;2.33;;
47251;SDS011;32991;51.374;11.586;2023-11-21T04:13:40;3.58;;;2.45;;
47251;SDS011;32991;51.374;11.586;2023-11-21T04:16:08;7.68;;;2.92;;
47251;SDS011;32991;51.374;11.586;2023-11-21T04:18:36;16.55;;;2.70;;
47251;SDS011;32991;51.374;11.586;2023-11-21T04:21:05;10.70;;;2.80;;
47251;SDS011;32991;51.374;11.586;2023-11-21T04:23:33;11.65;;;3.95;;
47251;SDS011;32991;51.374;11.586;2023-11-21T04:26:01;5.63;;;2.42;;
47251;SDS011;32991;51.374;11.586;2023-11-21T04:28:29;5.40;;;2.50;;
47251;SDS011;32991;51.374;11.586;2023-11-21T04:30:56;7.80;;;3.72;;
47251;SDS011;32991;51.374;11.586;2023-11-21T04:33:23;5.05;;;2.75;;
47251;SDS011;32991;51.374;11.586;2023-11-21T04:35:51;8.43;;;2.83;;
47251;SDS011;32991;51.374;11.586;2023-11-21T04:38:19;8.48;;;3.17;;
47251;SDS011;32991;51.374;11.586;2023-11-21T04:40:46;8.70;;;3.72;;
47251;SDS011;32991;51.374;11.586;2023-11-21T04:43:13;10.18;;;3.15;;
47251;SDS011;32991;51.374;11.586;2023-11-21T04:45:42;5.55;;;3.10;;
47251;SDS011;32991;51.374;11.586;2023-11-21T04:48:09;9.43;;;3.13;;
47251;SDS011;32991;51.374;11.586;2023-11-21T04:50:36;6.55;;;3.38;;
47251;SDS011;32991;51.374;11.586;2023-11-21T04:53:04;15.00;;;4.18;;
47251;SDS011;32991;51.374;11.586;2023-11-21T04:55:32;7.53;;;3.85;;
47251;SDS011;32991;51.374;11.586;2023-11-21T04:57:59;8.52;;;4.18;;
47251;SDS011;32991;51.374;11.586;2023-11-21T05:00:27;11.55;;;4.63;;
47251;SDS011;32991;51.374;11.586;2023-11-21T05:02:54;10.93;;;4.35;;
47251;SDS011;32991;51.374;11.586;2023-11-21T05:05:22;8.35;;;4.50;;
47251;SDS011;32991;51.374;11.586;2023-11-21T05:07:49;14.20;;;4.13;;
47251;SDS011;32991;51.374;11.586;2023-11-21T05:10:16;15.23;;;4.53;;
47251;SDS011;32991;51.374;11.586;2023-11-21T05:12:43;10.13;;;5.07;;
47251;SDS011;32991;51.374;11.586;2023-11-21T05:15:12;9.80;;;4.40;;
47251;SDS011;32991;51.374;11.586;2023-11-21T05:17:41;16.40;;;4.75;;
47251;SDS011;32991;51.374;11.586;2023-11-21T05:20:10;13.27;;;4.65;;
47251;SDS011;32991;51.374;11.586;2023-11-21T05:22:39;9.95;;;5.00;;
47251;SDS011;32991;51.374;11.586;2023-11-21T05:25:08;12.05;;;4.65;;
47251;SDS011;32991;51.374;11.586;2023-11-21T05:27:38;9.02;;;4.07;;
47251;SDS011;32991;51.374;11.586;2023-11-21T05:30:05;11.23;;;4.50;;
47251;SDS011;32991;51.374;11.586;2023-11-21T05:32:36;19.00;;;5.35;;
47251;SDS011;32991;51.374;11.586;2023-11-21T05:35:04;12.10;;;5.82;;
47251;SDS011;32991;51.374;11.586;2023-11-21T05:37:35;10.05;;;5.47;;
47251;SDS011;32991;51.374;11.586;2023-11-21T05:40:03;12.80;;;5.35;;
47251;SDS011;32991;51.374;11.586;2023-11-21T05:42:32;8.57;;;4.50;;
47251;SDS011;32991;51.374;11.586;2023-11-21T05:45:00;18.95;;;6.68;;
47251;SDS011;32991;51.374;11.586;2023-11-21T05:47:40;13.52;;;5.28;;
47251;SDS011;32991;51.374;11.586;2023-11-21T05:50:15;7.75;;;4.50;;
47251;SDS011;32991;51.374;11.586;2023-11-21T05:52:43;10.30;;;4.85;;
47251;SDS011;32991;51.374;11.586;2023-11-21T05:55:11;10.85;;;4.80;;
47251;SDS011;32991;51.374;11.586;2023-11-21T05:57:38;14.27;;;5.15;;
47251;SDS011;32991;51.374;11.586;2023-11-21T06:00:06;10.55;;;5.28;;
47251;SDS011;32991;51.374;11.586;2023-11-21T06:02:38;11.15;;;5.65;;
47251;SDS011;32991;51.374;11.586;2023-11-21T06:05:06;8.23;;;4.53;;
47251;SDS011;32991;51.374;11.586;2023-11-21T06:07:36;18.40;;;4.90;;
47251;SDS011;32991;51.374;11.586;2023-11-21T06:10:04;11.45;;;4.18;;
47251;SDS011;32991;51.374;11.586;2023-11-21T06:12:39;15.68;;;5.68;;
47251;SDS011;32991;51.374;11.586;2023-11-21T06:15:07;17.75;;;5.70;;
47251;SDS011;32991;51.374;11.586;2023-11-21T06:17:35;13.45;;;5.45;;
47251;SDS011;32991;51.374;11.586;2023-11-21T06:20:03;23.17;;;4.78;;
47251;SDS011;32991;51.374;11.586;2023-11-21T06:22:38;11.18;;;5.30;;
47251;SDS011;32991;51.374;11.586;2023-11-21T06:25:06;13.43;;;5.90;;
47251;SDS011;32991;51.374;11.586;2023-11-21T06:27:40;15.25;;;5.72;;
47251;SDS011;32991;51.374;11.586;2023-11-21T06:30:08;15.48;;;6.63;;
47251;SDS011;32991;51.374;11.586;2023-11-21T06:32:36;14.25;;;6.43;;
47251;SDS011;32991;51.374;11.586;2023-11-21T06:35:09;15.20;;;5.68;;
47251;SDS011;32991;51.374;11.586;2023-11-21T06:37:37;14.40;;;5.57;;
47251;SDS011;32991;51.374;11.586;2023-11-21T06:40:04;9.40;;;5.10;;
47251;SDS011;32991;51.374;11.586;2023-11-21T06:42:31;12.75;;;5.85;;
47251;SDS011;32991;51.374;11.586;2023-11-21T06:44:59;12.70;;;5.68;;
47251;SDS011;32991;51.374;11.586;2023-11-21T06:47:32;11.20;;;5.75;;
47251;SDS011;32991;51.374;11.586;2023-11-21T06:49:59;15.02;;;5.50;;
47251;SDS011;32991;51.374;11.586;2023-11-21T06:52:27;18.33;;;7.07;;
47251;SDS011;32991;51.374;11.586;2023-11-21T06:54:53;15.27;;;5.82;;
47251;SDS011;32991;51.374;11.586;2023-11-21T07:00:15;16.05;;;5.80;;
47251;SDS011;32991;51.374;11.586;2023-11-21T07:02:43;13.50;;;5.85;;
47251;SDS011;32991;51.374;11.586;2023-11-21T07:05:11;13.15;;;5.65;;
47251;SDS011;32991;51.374;11.586;2023-11-21T07:07:40;12.23;;;5.32;;
47251;SDS011;32991;51.374;11.586;2023-11-21T07:10:07;10.63;;;5.90;;
47251;SDS011;32991;51.374;11.586;2023-11-21T07:12:34;12.60;;;6.13;;
47251;SDS011;32991;51.374;11.586;2023-11-21T07:15:02;18.02;;;6.18;;
47251;SDS011;32991;51.374;11.586;2023-11-21T07:17:32;14.00;;;5.93;;
47251;SDS011;32991;51.374;11.586;2023-11-21T07:19:58;13.15;;;5.88;;
47251;SDS011;32991;51.374;11.586;2023-11-21T07:22:25;9.40;;;5.15;;
47251;SDS011;32991;51.374;11.586;2023-11-21T07:24:52;15.32;;;6.38;;
47251;SDS011;32991;51.374;11.586;2023-11-21T07:27:19;17.08;;;5.88;;
47251;SDS011;32991;51.374;11.586;2023-11-21T07:29:45;12.38;;;6.20;;
47251;SDS011;32991;51.374;11.586;2023-11-21T07:32:12;12.23;;;6.05;;
47251;SDS011;32991;51.374;11.586;2023-11-21T07:34:40;14.05;;;5.38;;
47251;SDS011;32991;51.374;11.586;2023-11-21T07:37:08;15.73;;;6.45;;
47251;SDS011;32991;51.374;11.586;2023-11-21T07:39:37;24.05;;;7.57;;
47251;SDS011;32991;51.374;11.586;2023-11-21T07:42:08;14.68;;;6.38;;
47251;SDS011;32991;51.374;11.586;2023-11-21T07:44:35;12.48;;;6.05;;
47251;SDS011;32991;51.374;11.586;2023-11-21T07:47:02;16.65;;;6.55;;
47251;SDS011;32991;51.374;11.586;2023-11-21T07:49:32;15.32;;;7.25;;
47251;SDS011;32991;51.374;11.586;2023-11-21T07:51:59;16.35;;;6.85;;
47251;SDS011;32991;51.374;11.586;2023-11-21T07:54:25;17.95;;;5.68;;
47251;SDS011;32991;51.374;11.586;2023-11-21T07:56:52;11.50;;;5.55;;
47251;SDS011;32991;51.374;11.586;2023-11-21T07:59:19;25.50;;;6.85;;
47251;SDS011;32991;51.374;11.586;2023-11-21T08:01:45;18.63;;;7.40;;
47251;SDS011;32991;51.374;11.586;2023-11-21T08:04:12;18.83;;;6.85;;
47251;SDS011;32991;51.374;11.586;2023-11-21T08:06:39;13.45;;;6.53;;
47251;SDS011;32991;51.374;11.586;2023-11-21T08:09:08;15.65;;;5.93;;
47251;SDS011;32991;51.374;11.586;2023-11-21T08:11:35;16.88;;;5.45;;
47251;SDS011;32991;51.374;11.586;2023-11-21T08:14:01;14.35;;;5.32;;
47251;SDS011;32991;51.374;11.586;2023-11-21T08:16:28;14.88;;;7.18;;
47251;SDS011;32991;51.374;11.586;2023-11-21T08:18:55;16.67;;;6.07;;
47251;SDS011;32991;51.374;11.586;2023-11-21T08:21:22;18.98;;;5.85;;
47251;SDS011;32991;51.374;11.586;2023-11-21T08:23:51;12.57;;;4.95;;
47251;SDS011;32991;51.374;11.586;2023-11-21T08:26:21;12.85;;;5.40;;
47251;SDS011;32991;51.374;11.586;2023-11-21T08:28:49;13.02;;;5.78;;
47251;SDS011;32991;51.374;11.586;2023-11-21T08:31:16;17.00;;;6.50;;
47251;SDS011;32991;51.374;11.586;2023-11-21T08:33:42;16.73;;;6.63;;
47251;SDS011;32991;51.374;11.586;2023-11-21T08:36:09;15.38;;;6.50;;
47251;SDS011;32991;51.374;11.586;2023-11-21T08:38:37;17.00;;;7.10;;
47251;SDS011;32991;51.374;11.586;2023-11-21T08:41:05;14.57;;;6.38;;
47251;SDS011;32991;51.374;11.586;2023-11-21T08:43:34;15.65;;;5.90;;
47251;SDS011;32991;51.374;11.586;2023-11-21T08:46:01;14.23;;;6.03;;
47251;SDS011;32991;51.374;11.586;2023-11-21T08:48:28;24.73;;;7.22;;
47251;SDS011;32991;51.374;11.586;2023-11-21T08:50:56;12.02;;;5.55;;
47251;SDS011;32991;51.374;11.586;2023-11-21T08:53:23;16.65;;;7.05;;
47251;SDS011;32991;51.374;11.586;2023-11-21T08:55:49;16.30;;;5.53;;
47251;SDS011;32991;51.374;11.586;2023-11-21T08:58:16;16.33;;;6.93;;
47251;SDS011;32991;51.374;11.586;2023-11-21T09:00:43;17.35;;;7.75;;
47251;SDS011;32991;51.374;11.586;2023-11-21T09:03:12;17.15;;;6.40;;
47251;SDS011;32991;51.374;11.586;2023-11-21T09:05:39;18.90;;;6.93;;
47251;SDS011;32991;51.374;11.586;2023-11-21T09:08:06;18.65;;;9.10;;
47251;SDS011;32991;51.374;11.586;2023-11-21T09:10:36;14.20;;;7.45;;
47251;SDS011;32991;51.374;11.586;2023-11-21T09:13:03;18.00;;;7.60;;
47251;SDS011;32991;51.374;11.586;2023-11-21T09:15:29;13.68;;;7.47;;
47251;SDS011;32991;51.374;11.586;2023-11-21T09:17:56;16.80;;;8.63;;
47251;SDS011;32991;51.374;11.586;2023-11-21T09:20:23;15.82;;;6.80;;
47251;SDS011;32991;51.374;11.586;2023-11-21T09:22:50;14.18;;;8.32;;
47251;SDS011;32991;51.374;11.586;2023-11-21T09:25:17;13.75;;;7.15;;
47251;SDS011;32991;51.374;11.586;2023-11-21T09:27:45;15.43;;;7.70;;
47251;SDS011;32991;51.374;11.586;2023-11-21T09:30:15;15.73;;;8.50;;
47251;SDS011;32991;51.374;11.586;2023-11-21T09:32:43;13.55;;;7.47;;
47251;SDS011;32991;51.374;11.586;2023-11-21T09:35:12;13.35;;;6.05;;
47251;SDS011;32991;51.374;11.586;2023-11-21T09:37:40;19.50;;;6.80;;
47251;SDS011;32991;51.374;11.586;2023-11-21T09:40:09;13.20;;;7.18;;
47251;SDS011;32991;51.374;11.586;2023-11-21T09:42:56;16.05;;;6.68;;
47251;SDS011;32991;51.374;11.586;2023-11-21T09:45:27;10.23;;;5.43;;
47251;SDS011;32991;51.374;11.586;2023-11-21T09:47:55;11.07;;;5.03;;
47251;SDS011;32991;51.374;11.586;2023-11-21T09:50:23;12.00;;;6.50;;
47251;SDS011;32991;51.374;11.586;2023-11-21T09:52:57;8.60;;;4.88;;
47251;SDS011;32991;51.374;11.586;2023-11-21T09:55:32;9.45;;;4.90;;
47251;SDS011;32991;51.374;11.586;2023-11-21T09:58:02;11.85;;;4.93;;
47251;SDS011;32991;51.374;11.586;2023-11-21T10:00:29;10.38;;;5.63;;
47251;SDS011;32991;51.374;11.586;2023-11-21T10:02:59;10.82;;;5.28;;
47251;SDS011;32991;51.374;11.586;2023-11-21T10:05:26;11.75;;;5.57;;
47251;SDS011;32991;51.374;11.586;2023-11-21T10:07:55;8.95;;;4.72;;
47251;SDS011;32991;51.374;11.586;2023-11-21T10:10:24;13.60;;;5.63;;
47251;SDS011;32991;51.374;11.586;2023-11-21T10:12:53;17.10;;;6.90;;
47251;SDS011;32991;51.374;11.586;2023-11-21T10:15:22;10.93;;;6.28;;
47251;SDS011;32991;51.374;11.586;2023-11-21T10:17:52;12.38;;;6.13;;
47251;SDS011;32991;51.374;11.586;2023-11-21T10:20:19;12.70;;;6.22;;
47251;SDS011;32991;51.374;11.586;2023-11-21T10:22:46;9.82;;;4.85;;
47251;SDS011;32991;51.374;11.586;2023-11-21T10:25:14;10.82;;;5.97;;
47251;SDS011;32991;51.374;11.586;2023-11-21T10:27:41;12.70;;;6.38;;
47251;SDS011;32991;51.374;11.586;2023-11-21T10:30:08;14.27;;;6.45;;
47251;SDS011;32991;51.374;11.586;2023-11-21T10:32:41;16.45;;;6.65;;
47251;SDS011;32991;51.374;11.586;2023-11-21T10:35:10;16.92;;;7.35;;
47251;SDS011;32991;51.374;11.586;2023-11-21T10:37:39;18.50;;;6.50;;
47251;SDS011;32991;51.374;11.586;2023-11-21T10:40:09;19.95;;;9.20;;
47251;SDS011;32991;51.374;11.586;2023-11-21T10:42:40;18.20;;;7.63;;
47251;SDS011;32991;51.374;11.586;2023-11-21T10:45:08;21.00;;;7.85;;
47251;SDS011;32991;51.374;11.586;2023-11-21T10:47:41;13.73;;;7.03;;
47251;SDS011;32991;51.374;11.586;2023-11-21T10:50:08;18.52;;;8.30;;
47251;SDS011;32991;51.374;11.586;2023-11-21T10:52:39;21.67;;;8.77;;
47251;SDS011;32991;51.374;11.586;2023-11-21T10:55:17;14.93;;;6.63;;
47251;SDS011;32991;51.374;11.586;2023-11-21T10:57:46;17.30;;;8.05;;
47251;SDS011;32991;51.374;11.586;2023-11-21T11:00:15;17.48;;;7.13;;
47251;SDS011;32991;51.374;11.586;2023-11-21T11:02:43;17.17;;;7.55;;
47251;SDS011;32991;51.374;11.586;2023-11-21T11:05:10;20.85;;;8.55;;
47251;SDS011;32991;51.374;11.586;2023-11-21T11:07:38;27.10;;;7.97;;
47251;SDS011;32991;51.374;11.586;2023-11-21T11:10:08;51.35;;;8.80;;
47251;SDS011;32991;51.374;11.586;2023-11-21T11:12:41;24.92;;;9.43;;
47251;SDS011;32991;51.374;11.586;2023-11-21T11:15:08;19.27;;;8.93;;
47251;SDS011;32991;51.374;11.586;2023-11-21T11:17:37;22.45;;;11.25;;
47251;SDS011;32991;51.374;11.586;2023-11-21T11:20:05;23.25;;;10.43;;
47251;SDS011;32991;51.374;11.586;2023-11-21T11:22:37;24.27;;;10.77;;
47251;SDS011;32991;51.374;11.586;2023-11-21T11:28:14;23.65;;;10.15;;
47251;SDS011;32991;51.374;11.586;2023-11-21T11:33:53;23.45;;;9.27;;
47251;SDS011;32991;51.374;11.586;2023-11-21T11:36:24;23.30;;;11.43;;
47251;SDS011;32991;51.374;11.586;2023-11-21T11:38:52;28.38;;;9.73;;
47251;SDS011;32991;51.374;11.586;2023-11-21T11:41:26;21.35;;;10.50;;
47251;SDS011;32991;51.374;11.586;2023-11-21T11:43:54;22.42;;;10.23;;
47251;SDS011;32991;51.374;11.586;2023-11-21T11:46:39;22.67;;;10.90;;
47251;SDS011;32991;51.374;11.586;2023-11-21T11:49:08;20.42;;;10.13;;
47251;SDS011;32991;51.374;11.586;2023-11-21T11:51:35;24.08;;;11.32;;
47251;SDS011;32991;51.374;11.586;2023-11-21T11:54:05;33.10;;;11.80;;
47251;SDS011;32991;51.374;11.586;2023-11-21T11:56:33;22.20;;;10.98;;
47251;SDS011;32991;51.374;11.586;2023-11-21T11:59:02;19.70;;;9.75;;
47251;SDS011;32991;51.374;11.586;2023-11-21T12:01:32;22.50;;;10.52;;
47251;SDS011;32991;51.374;11.586;2023-11-21T12:06:52;18.40;;;9.57;;
47251;SDS011;32991;51.374;11.586;2023-11-21T12:09:21;20.88;;;8.85;;
47251;SDS011;32991;51.374;11.586;2023-11-21T12:11:48;20.55;;;9.82;;
47251;SDS011;32991;51.374;11.586;2023-11-21T12:14:16;16.90;;;8.52;;
47251;SDS011;32991;51.374;11.586;2023-11-21T12:16:43;19.27;;;9.82;;
47251;SDS011;32991;51.374;11.586;2023-11-21T12:19:11;21.80;;;9.30;;
47251;SDS011;32991;51.374;11.586;2023-11-21T12:21:38;17.42;;;9.43;;
47251;SDS011;32991;51.374;11.586;2023-11-21T12:24:08;15.90;;;8.43;;
47251;SDS011;32991;51.374;11.586;2023-11-21T12:26:35;15.55;;;8.35;;
47251;SDS011;32991;51.374;11.586;2023-11-21T12:29:05;16.63;;;8.00;;
47251;SDS011;32991;51.374;11.586;2023-11-21T12:31:34;18.48;;;9.77;;
47251;SDS011;32991;51.374;11.586;2023-11-21T12:34:01;18.00;;;8.43;;
47251;SDS011;32991;51.374;11.586;2023-11-21T12:36:28;17.65;;;8.38;;
47251;SDS011;32991;51.374;11.586;2023-11-21T12:38:56;17.88;;;9.48;;
47251;SDS011;32991;51.374;11.586;2023-11-21T12:41:23;20.10;;;9.45;;
47251;SDS011;32991;51.374;11.586;2023-11-21T12:43:50;22.77;;;9.98;;
47251;SDS011;32991;51.374;11.586;2023-11-21T12:46:17;22.38;;;9.95;;
47251;SDS011;32991;51.374;11.586;2023-11-21T12:48:44;22.25;;;11.25;;
47251;SDS011;32991;51.374;11.586;2023-11-21T12:51:14;21.75;;;10.63;;
47251;SDS011;32991;51.374;11.586;2023-11-21T12:53:44;20.55;;;9.63;;
47251;SDS011;32991;51.374;11.586;2023-11-21T12:56:11;23.90;;;9.93;;
47251;SDS011;32991;51.374;11.586;2023-11-21T12:58:38;18.60;;;9.70;;
47251;SDS011;32991;51.374;11.586;2023-11-21T13:01:06;23.33;;;9.50;;
47251;SDS011;32991;51.374;11.586;2023-11-21T13:03:38;19.98;;;9.30;;
47251;SDS011;32991;51.374;11.586;2023-11-21T13:06:07;16.23;;;8.23;;
47251;SDS011;32991;51.374;11.586;2023-11-21T13:08:34;17.02;;;8.93;;
47251;SDS011;32991;51.374;11.586;2023-11-21T13:11:01;17.02;;;8.45;;
47251;SDS011;32991;51.374;11.586;2023-11-21T13:13:29;21.23;;;8.88;;
47251;SDS011;32991;51.374;11.586;2023-11-21T13:15:57;16.63;;;8.70;;
47251;SDS011;32991;51.374;11.586;2023-11-21T13:18:32;20.67;;;8.48;;
47251;SDS011;32991;51.374;11.586;2023-11-21T13:21:02;17.33;;;8.38;;
47251;SDS011;32991;51.374;11.586;2023-11-21T13:23:35;17.58;;;8.63;;
47251;SDS011;32991;51.374;11.586;2023-11-21T13:26:03;14.65;;;7.93;;
47251;SDS011;32991;51.374;11.586;2023-11-21T13:28:33;18.58;;;8.25;;
47251;SDS011;32991;51.374;11.586;2023-11-21T13:31:01;16.77;;;8.60;;
47251;SDS011;32991;51.374;11.586;2023-11-21T13:33:49;16.60;;;7.93;;
47251;SDS011;32991;51.374;11.586;2023-11-21T13:36:23;17.85;;;8.18;;
47251;SDS011;32991;51.374;11.586;2023-11-21T13:38:51;14.88;;;7.85;;
47251;SDS011;32991;51.374;11.586;2023-11-21T13:41:21;13.68;;;7.85;;
47251;SDS011;32991;51.374;11.586;2023-11-21T13:43:54;16.77;;;6.68;;
47251;SDS011;32991;51.374;11.586;2023-11-21T13:46:30;11.82;;;6.72;;
47251;SDS011;32991;51.374;11.586;2023-11-21T13:49:03;18.02;;;7.30;;
47251;SDS011;32991;51.374;11.586;2023-11-21T13:51:33;16.30;;;7.40;;
47251;SDS011;32991;51.374;11.586;2023-11-21T13:54:11;14.82;;;8.00;;
47251;SDS011;32991;51.374;11.586;2023-11-21T13:56:37;13.38;;;7.35;;
47251;SDS011;32991;51.374;11.586;2023-11-21T13:59:06;14.27;;;7.72;;
47251;SDS011;32991;51.374;11.586;2023-11-21T14:01:43;18.00;;;8.35;;
47251;SDS011;32991;51.374;11.586;2023-11-21T14:04:23;14.90;;;7.95;;
47251;SDS011;32991;51.374;11.586;2023-11-21T14:06:57;12.73;;;6.80;;
47251;SDS011;32991;51.374;11.586;2023-11-21T14:09:27;11.93;;;7.50;;
47251;SDS011;32991;51.374;11.586;2023-11-21T14:12:02;11.57;;;6.85;;
47251;SDS011;32991;51.374;11.586;2023-11-21T14:14:32;13.68;;;7.13;;
47251;SDS011;32991;51.374;11.586;2023-11-21T14:17:00;13.00;;;6.53;;
47251;SDS011;32991;51.374;11.586;2023-11-21T14:19:28;11.25;;;5.80;;
47251;SDS011;32991;51.374;11.586;2023-11-21T14:21:59;10.65;;;6.53;;
47251;SDS011;32991;51.374;11.586;2023-11-21T14:24:26;12.68;;;6.78;;
47251;SDS011;32991;51.374;11.586;2023-11-21T14:26:53;13.30;;;8.32;;
47251;SDS011;32991;51.374;11.586;2023-11-21T14:29:20;11.57;;;7.07;;
47251;SDS011;32991;51.374;11.586;2023-11-21T14:31:47;12.52;;;6.82;;
47251;SDS011;32991;51.374;11.586;2023-11-21T14:34:14;17.85;;;7.25;;
47251;SDS011;32991;51.374;11.586;2023-11-21T14:36:45;15.18;;;8.00;;
47251;SDS011;32991;51.374;11.586;2023-11-21T14:39:12;15.40;;;7.65;;
47251;SDS011;32991;51.374;11.586;2023-11-21T14:42:05;13.88;;;6.75;;
47251;SDS011;32991;51.374;11.586;2023-11-21T14:44:34;16.02;;;8.45;;
47251;SDS011;32991;51.374;11.586;2023-11-21T14:47:04;15.27;;;7.38;;